sensor_id;sensor_type;location;lat;lon;timestamp;pressure;altitude;pressure_sealevel;temperature;humidity
64853;BME280;56050;55.558;-4.644;2024-02-28T00:02:08;101550.25;;;9.70;68.21
64853;BME280;56050;55.558;-4.644;2024-02-28T00:04:33;101556.44;;;9.70;68.10
64853;BME280;56050;55.558;-4.644;2024-02-28T00:06:58;101555.72;;;9.73;68.07
64853;BME280;56050;55.558;-4.644;2024-02-28T00:09:24;101548.41;;;9.74;68.08
64853;BME280;56050;55.558;-4.644;2024-02-28T00:11:49;101544.59;;;9.75;68.00
64853;BME280;56050;55.558;-4.644;2024-02-28T00:14:15;101551.19;;;9.77;68.08
64853;BME280;56050;55.558;-4.644;2024-02-28T00:16:41;101547.34;;;9.78;67.96
64853;BME280;56050;55.558;-4.644;2024-02-28T00:19:07;101545.78;;;9.77;68.06
64853;BME280;56050;55.558;-4.644;2024-02-28T00:21:33;101539.63;;;9.77;68.10
64853;BME280;56050;55.558;-4.644;2024-02-28T00:23:58;101538.84;;;9.76;68.03
64853;BME280;56050;55.558;-4.644;2024-02-28T00:26:24;101539.63;;;9.77;68.13
64853;BME280;56050;55.558;-4.644;2024-02-28T00:28:50;101540.03;;;9.79;67.98
64853;BME280;56050;55.558;-4.644;2024-02-28T00:31:15;101536.97;;;9.80;68.02
64853;BME280;56050;55.558;-4.644;2024-02-28T00:33:40;101537.75;;;9.81;67.93
64853;BME280;56050;55.558;-4.644;2024-02-28T00:36:06;101528.16;;;9.80;68.04
64853;BME280;56050;55.558;-4.644;2024-02-28T00:38:31;101541.59;;;9.80;67.95
64853;BME280;56050;55.558;-4.644;2024-02-28T00:40:57;101550.44;;;9.80;68.11
64853;BME280;56050;55.558;-4.644;2024-02-28T00:43:22;101558.50;;;9.80;68.05
64853;BME280;56050;55.558;-4.644;2024-02-28T00:45:48;101556.59;;;9.81;68.00
64853;BME280;56050;55.558;-4.644;2024-02-28T00:48:13;101555.47;;;9.82;68.06
64853;BME280;56050;55.558;-4.644;2024-02-28T00:50:39;101545.50;;;9.82;67.91
64853;BME280;56050;55.558;-4.644;2024-02-28T00:53:04;101546.63;;;9.81;68.00
64853;BME280;56050;55.558;-4.644;2024-02-28T00:55:30;101540.09;;;9.82;67.87
64853;BME280;56050;55.558;-4.644;2024-02-28T00:57:55;101537.81;;;9.84;67.86
64853;BME280;56050;55.558;-4.644;2024-02-28T01:00:20;101530.94;;;9.87;67.86
64853;BME280;56050;55.558;-4.644;2024-02-28T01:02:46;101537.88;;;9.88;67.87
64853;BME280;56050;55.558;-4.644;2024-02-28T01:05:11;101524.44;;;9.88;67.81
64853;BME280;56050;55.558;-4.644;2024-02-28T01:07:37;101522.16;;;9.90;67.83
64853;BME280;56050;55.558;-4.644;2024-02-28T01:10:03;101534.81;;;9.89;67.80
64853;BME280;56050;55.558;-4.644;2024-02-28T01:12:29;101538.66;;;9.88;67.74
64853;BME280;56050;55.558;-4.644;2024-02-28T01:14:55;101537.09;;;9.87;67.92
64853;BME280;56050;55.558;-4.644;2024-02-28T01:17:20;101542.84;;;9.86;67.79
64853;BME280;56050;55.558;-4.644;2024-02-28T01:19:47;101538.22;;;9.86;67.97
64853;BME280;56050;55.558;-4.644;2024-02-28T01:22:12;101545.97;;;9.88;67.85
64853;BME280;56050;55.558;-4.644;2024-02-28T01:24:37;101535.59;;;9.90;67.87
64853;BME280;56050;55.558;-4.644;2024-02-28T01:27:03;101532.91;;;9.90;67.89
64853;BME280;56050;55.558;-4.644;2024-02-28T01:29:28;101523.28;;;9.89;67.90
64853;BME280;56050;55.558;-4.644;2024-02-28T01:31:55;101527.91;;;9.88;67.93
64853;BME280;56050;55.558;-4.644;2024-02-28T01:34:20;101527.53;;;9.90;67.81
64853;BME280;56050;55.558;-4.644;2024-02-28T01:36:46;101526.75;;;9.89;67.92
64853;BME280;56050;55.558;-4.644;2024-02-28T01:39:11;101522.94;;;9.90;67.84
64853;BME280;56050;55.558;-4.644;2024-02-28T01:41:37;101517.53;;;9.90;67.86
64853;BME280;56050;55.558;-4.644;2024-02-28T01:44:02;101510.59;;;9.89;67.84
64853;BME280;56050;55.558;-4.644;2024-02-28T01:46:28;101505.22;;;9.89;68.06
64853;BME280;56050;55.558;-4.644;2024-02-28T01:48:55;101503.31;;;9.90;67.88
64853;BME280;56050;55.558;-4.644;2024-02-28T01:51:25;101494.44;;;9.89;68.03
64853;BME280;56050;55.558;-4.644;2024-02-28T01:53:54;101492.91;;;9.88;67.83
64853;BME280;56050;55.558;-4.644;2024-02-28T01:56:20;101486.75;;;9.88;67.83
64853;BME280;56050;55.558;-4.644;2024-02-28T01:58:49;101490.94;;;9.85;67.94
64853;BME280;56050;55.558;-4.644;2024-02-28T02:01:15;101490.16;;;9.85;68.05
64853;BME280;56050;55.558;-4.644;2024-02-28T02:03:44;101484.00;;;9.84;68.05
64853;BME280;56050;55.558;-4.644;2024-02-28T02:06:10;101478.25;;;9.86;67.93
64853;BME280;56050;55.558;-4.644;2024-02-28T02:08:37;101470.16;;;9.86;68.04
64853;BME280;56050;55.558;-4.644;2024-02-28T02:11:04;101467.47;;;9.86;67.97
64853;BME280;56050;55.558;-4.644;2024-02-28T02:13:29;101470.16;;;9.86;67.88
64853;BME280;56050;55.558;-4.644;2024-02-28T02:15:54;101469.41;;;9.85;68.04
64853;BME280;56050;55.558;-4.644;2024-02-28T02:18:20;101476.72;;;9.85;68.10
64853;BME280;56050;55.558;-4.644;2024-02-28T02:20:52;101465.94;;;9.85;67.99
64853;BME280;56050;55.558;-4.644;2024-02-28T02:23:19;101461.34;;;9.85;68.07
64853;BME280;56050;55.558;-4.644;2024-02-28T02:25:48;101456.72;;;9.86;68.03
64853;BME280;56050;55.558;-4.644;2024-02-28T02:28:14;101450.59;;;9.85;68.19
64853;BME280;56050;55.558;-4.644;2024-02-28T02:30:40;101446.34;;;9.84;68.02
64853;BME280;56050;55.558;-4.644;2024-02-28T02:33:07;101439.03;;;9.85;68.04
64853;BME280;56050;55.558;-4.644;2024-02-28T02:35:33;101443.63;;;9.84;68.02
64853;BME280;56050;55.558;-4.644;2024-02-28T02:37:59;101440.16;;;9.84;67.96
64853;BME280;56050;55.558;-4.644;2024-02-28T02:40:25;101437.47;;;9.84;67.99
64853;BME280;56050;55.558;-4.644;2024-02-28T02:42:51;101440.16;;;9.84;67.99
64853;BME280;56050;55.558;-4.644;2024-02-28T02:45:16;101442.06;;;9.83;68.24
64853;BME280;56050;55.558;-4.644;2024-02-28T02:47:42;101441.31;;;9.83;68.13
64853;BME280;56050;55.558;-4.644;2024-02-28T02:50:09;101435.16;;;9.82;68.00
64853;BME280;56050;55.558;-4.644;2024-02-28T02:52:35;101432.03;;;9.80;68.08
64853;BME280;56050;55.558;-4.644;2024-02-28T02:55:01;101429.00;;;9.82;68.08
64853;BME280;56050;55.558;-4.644;2024-02-28T02:57:26;101428.63;;;9.83;68.07
64853;BME280;56050;55.558;-4.644;2024-02-28T02:59:52;101429.00;;;9.82;67.83
64853;BME280;56050;55.558;-4.644;2024-02-28T03:02:17;101428.22;;;9.81;68.01
64853;BME280;56050;55.558;-4.644;2024-02-28T03:04:42;101432.03;;;9.80;67.98
64853;BME280;56050;55.558;-4.644;2024-02-28T03:07:08;101424.34;;;9.79;68.09
64853;BME280;56050;55.558;-4.644;2024-02-28T03:09:33;101419.38;;;9.81;68.00
64853;BME280;56050;55.558;-4.644;2024-02-28T03:11:59;101421.66;;;9.79;68.12
64853;BME280;56050;55.558;-4.644;2024-02-28T03:14:25;101420.06;;;9.74;68.11
64853;BME280;56050;55.558;-4.644;2024-02-28T03:16:53;101418.88;;;9.72;68.03
64853;BME280;56050;55.558;-4.644;2024-02-28T03:19:18;101410.38;;;9.70;68.09
64853;BME280;56050;55.558;-4.644;2024-02-28T03:21:44;101414.22;;;9.69;68.15
64853;BME280;56050;55.558;-4.644;2024-02-28T03:24:09;101420.72;;;9.68;68.12
64853;BME280;56050;55.558;-4.644;2024-02-28T03:26:35;101414.56;;;9.67;68.08
64853;BME280;56050;55.558;-4.644;2024-02-28T03:29:01;101411.09;;;9.67;68.22
64853;BME280;56050;55.558;-4.644;2024-02-28T03:31:26;101409.56;;;9.66;68.19
64853;BME280;56050;55.558;-4.644;2024-02-28T03:33:52;101407.66;;;9.66;68.18
64853;BME280;56050;55.558;-4.644;2024-02-28T03:36:18;101404.97;;;9.66;68.27
64853;BME280;56050;55.558;-4.644;2024-02-28T03:38:43;101394.94;;;9.67;68.25
64853;BME280;56050;55.558;-4.644;2024-02-28T03:41:08;101390.00;;;9.69;68.14
64853;BME280;56050;55.558;-4.644;2024-02-28T03:43:34;101383.47;;;9.70;68.14
64853;BME280;56050;55.558;-4.644;2024-02-28T03:46:00;101389.22;;;9.68;68.19
64853;BME280;56050;55.558;-4.644;2024-02-28T03:48:25;101393.47;;;9.69;68.20
64853;BME280;56050;55.558;-4.644;2024-02-28T03:50:50;101381.16;;;9.68;68.05
64853;BME280;56050;55.558;-4.644;2024-02-28T03:53:16;101383.06;;;9.68;68.20
64853;BME280;56050;55.558;-4.644;2024-02-28T03:55:42;101382.66;;;9.66;68.26
64853;BME280;56050;55.558;-4.644;2024-02-28T03:58:10;101384.94;;;9.64;68.16
64853;BME280;56050;55.558;-4.644;2024-02-28T04:00:35;101380.69;;;9.63;68.22
64853;BME280;56050;55.558;-4.644;2024-02-28T04:03:01;101377.59;;;9.61;68.14
64853;BME280;56050;55.558;-4.644;2024-02-28T04:05:28;101376.03;;;9.60;68.24
64853;BME280;56050;55.558;-4.644;2024-02-28T04:07:54;101370.66;;;9.60;68.20
64853;BME280;56050;55.558;-4.644;2024-02-28T04:10:19;101371.78;;;9.59;68.17
64853;BME280;56050;55.558;-4.644;2024-02-28T04:12:45;101370.28;;;9.61;68.15
64853;BME280;56050;55.558;-4.644;2024-02-28T04:15:11;101370.66;;;9.60;68.17
64853;BME280;56050;55.558;-4.644;2024-02-28T04:17:38;101372.56;;;9.59;68.14
64853;BME280;56050;55.558;-4.644;2024-02-28T04:20:04;101362.97;;;9.58;68.19
64853;BME280;56050;55.558;-4.644;2024-02-28T04:22:33;101375.25;;;9.59;68.15
64853;BME280;56050;55.558;-4.644;2024-02-28T04:24:58;101372.94;;;9.58;68.18
64853;BME280;56050;55.558;-4.644;2024-02-28T04:27:24;101363.72;;;9.59;68.17
64853;BME280;56050;55.558;-4.644;2024-02-28T04:29:49;101364.88;;;9.58;68.06
64853;BME280;56050;55.558;-4.644;2024-02-28T04:32:14;101357.53;;;9.55;67.99
64853;BME280;56050;55.558;-4.644;2024-02-28T04:34:40;101361.72;;;9.52;68.05
64853;BME280;56050;55.558;-4.644;2024-02-28T04:37:05;101354.00;;;9.51;68.07
64853;BME280;56050;55.558;-4.644;2024-02-28T04:39:31;101347.06;;;9.50;68.09
64853;BME280;56050;55.558;-4.644;2024-02-28T04:41:56;101345.91;;;9.47;68.02
64853;BME280;56050;55.558;-4.644;2024-02-28T04:44:21;101347.03;;;9.46;68.14
64853;BME280;56050;55.558;-4.644;2024-02-28T04:46:47;101337.78;;;9.43;68.17
64853;BME280;56050;55.558;-4.644;2024-02-28T04:49:12;101328.84;;;9.39;68.19
64853;BME280;56050;55.558;-4.644;2024-02-28T04:51:38;101320.75;;;9.36;68.16
64853;BME280;56050;55.558;-4.644;2024-02-28T04:54:03;101318.41;;;9.34;68.02
64853;BME280;56050;55.558;-4.644;2024-02-28T04:56:28;101325.69;;;9.30;68.03
64853;BME280;56050;55.558;-4.644;2024-02-28T04:58:54;101324.84;;;9.26;67.88
64853;BME280;56050;55.558;-4.644;2024-02-28T05:01:19;101315.94;;;9.22;67.99
64853;BME280;56050;55.558;-4.644;2024-02-28T05:03:45;101321.28;;;9.19;67.99
64853;BME280;56050;55.558;-4.644;2024-02-28T05:06:10;101313.56;;;9.17;67.99
64853;BME280;56050;55.558;-4.644;2024-02-28T05:08:38;101311.97;;;9.13;67.99
64853;BME280;56050;55.558;-4.644;2024-02-28T05:11:04;101313.06;;;9.08;67.87
64853;BME280;56050;55.558;-4.644;2024-02-28T05:13:29;101313.00;;;9.05;67.87
64853;BME280;56050;55.558;-4.644;2024-02-28T05:15:54;101305.28;;;9.03;67.84
64853;BME280;56050;55.558;-4.644;2024-02-28T05:18:20;101309.13;;;9.02;67.85
64853;BME280;56050;55.558;-4.644;2024-02-28T05:20:46;101307.16;;;8.99;67.77
64853;BME280;56050;55.558;-4.644;2024-02-28T05:23:11;101301.00;;;8.99;67.89
64853;BME280;56050;55.558;-4.644;2024-02-28T05:25:37;101295.63;;;8.99;67.72
64853;BME280;56050;55.558;-4.644;2024-02-28T05:28:03;101297.91;;;8.97;67.58
64853;BME280;56050;55.558;-4.644;2024-02-28T05:30:28;101294.81;;;8.95;67.54
64853;BME280;56050;55.558;-4.644;2024-02-28T05:32:53;101290.19;;;8.95;67.43
64853;BME280;56050;55.558;-4.644;2024-02-28T05:35:19;101281.72;;;8.93;67.35
64853;BME280;56050;55.558;-4.644;2024-02-28T05:37:45;101282.13;;;8.95;67.39
64853;BME280;56050;55.558;-4.644;2024-02-28T05:40:12;101281.72;;;8.93;67.23
64853;BME280;56050;55.558;-4.644;2024-02-28T05:42:38;101273.97;;;8.88;67.18
64853;BME280;56050;55.558;-4.644;2024-02-28T05:45:06;101276.97;;;8.83;67.26
64853;BME280;56050;55.558;-4.644;2024-02-28T05:47:31;101268.06;;;8.79;67.27
64853;BME280;56050;55.558;-4.644;2024-02-28T05:49:57;101272.66;;;8.78;67.23
64853;BME280;56050;55.558;-4.644;2024-02-28T05:52:24;101262.28;;;8.77;67.24
64853;BME280;56050;55.558;-4.644;2024-02-28T05:54:51;101255.72;;;8.74;67.15
64853;BME280;56050;55.558;-4.644;2024-02-28T05:57:17;101258.75;;;8.73;67.07
64853;BME280;56050;55.558;-4.644;2024-02-28T05:59:42;101260.69;;;8.72;66.99
64853;BME280;56050;55.558;-4.644;2024-02-28T06:02:08;101247.59;;;8.71;66.91
64853;BME280;56050;55.558;-4.644;2024-02-28T06:04:33;101241.44;;;8.70;66.94
64853;BME280;56050;55.558;-4.644;2024-02-28T06:06:59;101236.44;;;8.69;66.78
64853;BME280;56050;55.558;-4.644;2024-02-28T06:09:25;101237.50;;;8.64;66.78
64853;BME280;56050;55.558;-4.644;2024-02-28T06:11:52;101236.31;;;8.62;66.83
64853;BME280;56050;55.558;-4.644;2024-02-28T06:14:18;101228.25;;;8.62;66.76
64853;BME280;56050;55.558;-4.644;2024-02-28T06:16:46;101219.81;;;8.60;66.64
64853;BME280;56050;55.558;-4.644;2024-02-28T06:19:12;101218.28;;;8.59;66.75
64853;BME280;56050;55.558;-4.644;2024-02-28T06:21:37;101221.72;;;8.59;66.83
64853;BME280;56050;55.558;-4.644;2024-02-28T06:24:03;101219.03;;;8.59;66.71
64853;BME280;56050;55.558;-4.644;2024-02-28T06:26:29;101222.44;;;8.56;66.71
64853;BME280;56050;55.558;-4.644;2024-02-28T06:28:57;101223.56;;;8.55;66.69
64853;BME280;56050;55.558;-4.644;2024-02-28T06:31:27;101205.13;;;8.54;66.74
64853;BME280;56050;55.558;-4.644;2024-02-28T06:33:55;101189.00;;;8.54;66.74
64853;BME280;56050;55.558;-4.644;2024-02-28T06:36:20;101196.72;;;8.55;66.64
64853;BME280;56050;55.558;-4.644;2024-02-28T06:38:46;101190.97;;;8.57;66.58
64853;BME280;56050;55.558;-4.644;2024-02-28T06:41:11;101191.41;;;8.59;66.53
64853;BME280;56050;55.558;-4.644;2024-02-28T06:43:37;101184.50;;;8.58;66.43
64853;BME280;56050;55.558;-4.644;2024-02-28T06:46:03;101187.16;;;8.58;66.42
64853;BME280;56050;55.558;-4.644;2024-02-28T06:48:28;101186.78;;;8.59;66.35
64853;BME280;56050;55.558;-4.644;2024-02-28T06:50:54;101180.31;;;8.60;66.33
64853;BME280;56050;55.558;-4.644;2024-02-28T06:53:20;101183.78;;;8.61;66.13
64853;BME280;56050;55.558;-4.644;2024-02-28T06:55:45;101178.03;;;8.62;66.33
64853;BME280;56050;55.558;-4.644;2024-02-28T06:58:14;101187.22;;;8.61;66.18
64853;BME280;56050;55.558;-4.644;2024-02-28T07:00:39;101186.50;;;8.64;66.31
64853;BME280;56050;55.558;-4.644;2024-02-28T07:03:04;101176.13;;;8.63;66.10
64853;BME280;56050;55.558;-4.644;2024-02-28T07:05:30;101174.22;;;8.63;66.14
64853;BME280;56050;55.558;-4.644;2024-02-28T07:07:55;101168.44;;;8.61;66.01
64853;BME280;56050;55.558;-4.644;2024-02-28T07:10:21;101166.50;;;8.62;66.09
64853;BME280;56050;55.558;-4.644;2024-02-28T07:12:46;101139.63;;;8.58;66.03
64853;BME280;56050;55.558;-4.644;2024-02-28T07:15:11;101140.41;;;8.59;66.07
64853;BME280;56050;55.558;-4.644;2024-02-28T07:17:37;101150.69;;;8.57;66.02
64853;BME280;56050;55.558;-4.644;2024-02-28T07:20:02;101132.34;;;8.59;65.99
64853;BME280;56050;55.558;-4.644;2024-02-28T07:22:28;101130.78;;;8.58;66.02
64853;BME280;56050;55.558;-4.644;2024-02-28T07:24:53;101131.19;;;8.60;66.09
64853;BME280;56050;55.558;-4.644;2024-02-28T07:27:18;101123.91;;;8.60;66.05
64853;BME280;56050;55.558;-4.644;2024-02-28T07:29:46;101120.09;;;8.61;66.09
64853;BME280;56050;55.558;-4.644;2024-02-28T07:32:12;101116.66;;;8.64;65.99
64853;BME280;56050;55.558;-4.644;2024-02-28T07:34:39;101115.53;;;8.65;66.04
64853;BME280;56050;55.558;-4.644;2024-02-28T07:37:04;101111.72;;;8.66;66.05
64853;BME280;56050;55.558;-4.644;2024-02-28T07:39:31;101110.63;;;8.71;66.10
64853;BME280;56050;55.558;-4.644;2024-02-28T07:41:56;101109.19;;;8.77;66.18
64853;BME280;56050;55.558;-4.644;2024-02-28T07:44:22;101108.06;;;8.81;66.36
64853;BME280;56050;55.558;-4.644;2024-02-28T07:46:48;101113.13;;;8.86;66.25
64853;BME280;56050;55.558;-4.644;2024-02-28T07:49:15;101103.59;;;8.89;66.16
64853;BME280;56050;55.558;-4.644;2024-02-28T07:51:41;101099.00;;;8.93;66.20
64853;BME280;56050;55.558;-4.644;2024-02-28T07:54:07;101100.59;;;8.98;66.11
64853;BME280;56050;55.558;-4.644;2024-02-28T07:56:32;101092.19;;;8.99;66.27
64853;BME280;56050;55.558;-4.644;2024-02-28T07:58:58;101090.69;;;9.02;66.23
64853;BME280;56050;55.558;-4.644;2024-02-28T08:01:23;101091.06;;;9.04;66.24
64853;BME280;56050;55.558;-4.644;2024-02-28T08:03:48;101083.78;;;9.04;66.32
64853;BME280;56050;55.558;-4.644;2024-02-28T08:06:14;101081.16;;;9.08;66.33
64853;BME280;56050;55.558;-4.644;2024-02-28T08:08:44;101083.84;;;9.08;66.28
64853;BME280;56050;55.558;-4.644;2024-02-28T08:11:10;101076.13;;;9.06;66.33
64853;BME280;56050;55.558;-4.644;2024-02-28T08:13:36;101078.81;;;9.06;66.37
64853;BME280;56050;55.558;-4.644;2024-02-28T08:16:01;101062.69;;;9.06;66.47
64853;BME280;56050;55.558;-4.644;2024-02-28T08:18:27;101063.88;;;9.09;66.48
64853;BME280;56050;55.558;-4.644;2024-02-28T08:20:53;101056.97;;;9.08;66.45
64853;BME280;56050;55.558;-4.644;2024-02-28T08:23:22;101058.88;;;9.07;66.57
64853;BME280;56050;55.558;-4.644;2024-02-28T08:25:48;101053.88;;;9.06;66.61
64853;BME280;56050;55.558;-4.644;2024-02-28T08:28:13;101063.88;;;9.09;66.78
64853;BME280;56050;55.558;-4.644;2024-02-28T08:30:39;101049.69;;;9.08;66.68
64853;BME280;56050;55.558;-4.644;2024-02-28T08:33:08;101042.81;;;9.11;66.75
64853;BME280;56050;55.558;-4.644;2024-02-28T08:35:35;101035.50;;;9.11;66.58
64853;BME280;56050;55.558;-4.644;2024-02-28T08:38:01;101032.84;;;9.11;66.73
64853;BME280;56050;55.558;-4.644;2024-02-28T08:40:28;101031.66;;;9.12;66.77
64853;BME280;56050;55.558;-4.644;2024-02-28T08:42:54;101030.16;;;9.15;66.84
64853;BME280;56050;55.558;-4.644;2024-02-28T08:45:20;101029.03;;;9.16;66.81
64853;BME280;56050;55.558;-4.644;2024-02-28T08:47:45;101027.13;;;9.20;66.83
64853;BME280;56050;55.558;-4.644;2024-02-28T08:50:11;101009.88;;;9.21;66.73
64853;BME280;56050;55.558;-4.644;2024-02-28T08:52:36;100996.06;;;9.22;66.82
64853;BME280;56050;55.558;-4.644;2024-02-28T08:55:02;100977.22;;;9.22;66.71
64853;BME280;56050;55.558;-4.644;2024-02-28T08:57:28;100981.09;;;9.21;66.68
64853;BME280;56050;55.558;-4.644;2024-02-28T08:59:55;100965.72;;;9.22;66.73
64853;BME280;56050;55.558;-4.644;2024-02-28T09:02:21;100972.63;;;9.23;66.65
64853;BME280;56050;55.558;-4.644;2024-02-28T09:04:47;100985.72;;;9.24;66.79
64853;BME280;56050;55.558;-4.644;2024-02-28T09:07:17;100981.91;;;9.29;66.78
64853;BME280;56050;55.558;-4.644;2024-02-28T09:09:45;100969.66;;;9.31;66.63
64853;BME280;56050;55.558;-4.644;2024-02-28T09:12:11;100972.38;;;9.35;66.60
64853;BME280;56050;55.558;-4.644;2024-02-28T09:14:36;100964.34;;;9.38;66.73
64853;BME280;56050;55.558;-4.644;2024-02-28T09:17:02;100965.13;;;9.42;66.58
64853;BME280;56050;55.558;-4.644;2024-02-28T09:19:31;100958.22;;;9.45;66.48
64853;BME280;56050;55.558;-4.644;2024-02-28T09:21:57;100958.28;;;9.49;66.61
64853;BME280;56050;55.558;-4.644;2024-02-28T09:24:23;100961.34;;;9.51;66.52
64853;BME280;56050;55.558;-4.644;2024-02-28T09:26:49;100957.91;;;9.54;66.44
64853;BME280;56050;55.558;-4.644;2024-02-28T09:29:14;100946.06;;;9.58;66.40
64853;BME280;56050;55.558;-4.644;2024-02-28T09:31:39;100945.72;;;9.63;66.39
64853;BME280;56050;55.558;-4.644;2024-02-28T09:34:05;100930.75;;;9.66;66.36
64853;BME280;56050;55.558;-4.644;2024-02-28T09:36:39;100935.38;;;9.69;66.40
64853;BME280;56050;55.558;-4.644;2024-02-28T09:39:05;100926.94;;;9.74;66.29
64853;BME280;56050;55.558;-4.644;2024-02-28T09:41:31;100930.81;;;9.76;66.25
64853;BME280;56050;55.558;-4.644;2024-02-28T09:43:56;100920.47;;;9.82;66.31
64853;BME280;56050;55.558;-4.644;2024-02-28T09:46:22;100920.84;;;9.84;66.19
64853;BME280;56050;55.558;-4.644;2024-02-28T09:48:48;100920.88;;;9.87;66.19
64853;BME280;56050;55.558;-4.644;2024-02-28T09:51:18;100915.09;;;9.85;66.20
64853;BME280;56050;55.558;-4.644;2024-02-28T09:53:46;100913.56;;;9.84;66.34
64853;BME280;56050;55.558;-4.644;2024-02-28T09:56:11;100890.88;;;9.85;66.28
64853;BME280;56050;55.558;-4.644;2024-02-28T09:58:38;100890.88;;;9.89;66.36
64853;BME280;56050;55.558;-4.644;2024-02-28T10:01:04;100880.91;;;9.89;66.28
64853;BME280;56050;55.558;-4.644;2024-02-28T10:03:31;100868.22;;;9.90;66.25
64853;BME280;56050;55.558;-4.644;2024-02-28T10:05:57;100867.47;;;9.93;66.46
64853;BME280;56050;55.558;-4.644;2024-02-28T10:08:23;100860.94;;;9.94;66.31
64853;BME280;56050;55.558;-4.644;2024-02-28T10:10:49;100862.13;;;9.96;66.36
64853;BME280;56050;55.558;-4.644;2024-02-28T10:13:17;100853.66;;;9.98;66.54
64853;BME280;56050;55.558;-4.644;2024-02-28T10:15:43;100856.34;;;9.98;66.48
64853;BME280;56050;55.558;-4.644;2024-02-28T10:18:09;100854.78;;;9.97;66.43
64853;BME280;56050;55.558;-4.644;2024-02-28T10:20:35;100852.91;;;10.01;66.64
64853;BME280;56050;55.558;-4.644;2024-02-28T10:23:07;100848.69;;;10.03;66.54
64853;BME280;56050;55.558;-4.644;2024-02-28T10:25:45;100847.53;;;10.08;66.54
64853;BME280;56050;55.558;-4.644;2024-02-28T10:28:11;100854.09;;;10.11;66.60
64853;BME280;56050;55.558;-4.644;2024-02-28T10:30:44;100842.16;;;10.12;66.54
64853;BME280;56050;55.558;-4.644;2024-02-28T10:33:13;100842.56;;;10.14;66.60
64853;BME280;56050;55.558;-4.644;2024-02-28T10:35:41;100849.53;;;10.18;66.63
64853;BME280;56050;55.558;-4.644;2024-02-28T10:38:13;100848.38;;;10.19;66.59
64853;BME280;56050;55.558;-4.644;2024-02-28T10:40:40;100836.47;;;10.20;66.51
64853;BME280;56050;55.558;-4.644;2024-02-28T10:43:08;100840.69;;;10.21;66.71
64853;BME280;56050;55.558;-4.644;2024-02-28T10:45:35;100832.63;;;10.25;66.76
64853;BME280;56050;55.558;-4.644;2024-02-28T10:48:03;100833.03;;;10.27;66.82
64853;BME280;56050;55.558;-4.644;2024-02-28T10:50:29;100820.31;;;10.31;66.77
64853;BME280;56050;55.558;-4.644;2024-02-28T10:53:04;100819.56;;;10.34;66.68
64853;BME280;56050;55.558;-4.644;2024-02-28T10:55:33;100822.28;;;10.37;66.72
64853;BME280;56050;55.558;-4.644;2024-02-28T10:58:03;100827.69;;;10.41;66.78
64853;BME280;56050;55.558;-4.644;2024-02-28T11:00:34;100813.81;;;10.42;66.76
64853;BME280;56050;55.558;-4.644;2024-02-28T11:03:01;100816.13;;;10.44;66.82
64853;BME280;56050;55.558;-4.644;2024-02-28T11:05:49;100805.34;;;10.47;66.78
64853;BME280;56050;55.558;-4.644;2024-02-28T11:08:22;100798.81;;;10.48;66.79
64853;BME280;56050;55.558;-4.644;2024-02-28T11:10:58;100783.44;;;10.49;66.91
64853;BME280;56050;55.558;-4.644;2024-02-28T11:13:27;100772.28;;;10.50;66.93
64853;BME280;56050;55.558;-4.644;2024-02-28T11:15:53;100765.75;;;10.51;67.11
64853;BME280;56050;55.558;-4.644;2024-02-28T11:18:20;100761.88;;;10.52;67.15
64853;BME280;56050;55.558;-4.644;2024-02-28T11:20:46;100763.41;;;10.53;67.09
64853;BME280;56050;55.558;-4.644;2024-02-28T11:23:14;100757.25;;;10.53;67.26
64853;BME280;56050;55.558;-4.644;2024-02-28T11:25:42;100756.09;;;10.50;67.48
64853;BME280;56050;55.558;-4.644;2024-02-28T11:28:08;100744.56;;;10.50;67.78
64853;BME280;56050;55.558;-4.644;2024-02-28T11:30:34;100740.34;;;10.49;67.70
64853;BME280;56050;55.558;-4.644;2024-02-28T11:32:59;100749.16;;;10.49;67.71
64853;BME280;56050;55.558;-4.644;2024-02-28T11:35:26;100753.41;;;10.50;67.74
64853;BME280;56050;55.558;-4.644;2024-02-28T11:37:54;100740.72;;;10.51;67.87
64853;BME280;56050;55.558;-4.644;2024-02-28T11:40:25;100746.09;;;10.51;67.83
64853;BME280;56050;55.558;-4.644;2024-02-28T11:42:56;100748.81;;;10.51;67.90
64853;BME280;56050;55.558;-4.644;2024-02-28T11:45:24;100729.56;;;10.52;67.80
64853;BME280;56050;55.558;-4.644;2024-02-28T11:47:50;100741.09;;;10.53;67.95
64853;BME280;56050;55.558;-4.644;2024-02-28T11:50:16;100730.69;;;10.55;68.07
64853;BME280;56050;55.558;-4.644;2024-02-28T11:52:43;100722.25;;;10.56;68.23
64853;BME280;56050;55.558;-4.644;2024-02-28T11:55:09;100711.06;;;10.58;68.25
64853;BME280;56050;55.558;-4.644;2024-02-28T11:57:34;100708.00;;;10.59;68.38
64853;BME280;56050;55.558;-4.644;2024-02-28T12:00:08;100708.00;;;10.59;68.63
64853;BME280;56050;55.558;-4.644;2024-02-28T12:02:34;100699.94;;;10.63;68.39
64853;BME280;56050;55.558;-4.644;2024-02-28T12:05:02;100701.09;;;10.66;68.37
64853;BME280;56050;55.558;-4.644;2024-02-28T12:07:27;100692.22;;;10.69;68.50
64853;BME280;56050;55.558;-4.644;2024-02-28T12:09:57;100691.84;;;10.70;68.66
64853;BME280;56050;55.558;-4.644;2024-02-28T12:12:23;100685.28;;;10.75;68.50
64853;BME280;56050;55.558;-4.644;2024-02-28T12:14:48;100684.91;;;10.80;68.50
64853;BME280;56050;55.558;-4.644;2024-02-28T12:17:17;100679.88;;;10.82;68.45
64853;BME280;56050;55.558;-4.644;2024-02-28T12:19:42;100676.00;;;10.86;68.36
64853;BME280;56050;55.558;-4.644;2024-02-28T12:22:08;100667.94;;;10.90;68.54
64853;BME280;56050;55.558;-4.644;2024-02-28T12:24:34;100665.22;;;10.93;68.44
64853;BME280;56050;55.558;-4.644;2024-02-28T12:27:00;100650.22;;;10.96;68.74
64853;BME280;56050;55.558;-4.644;2024-02-28T12:29:25;100639.03;;;10.97;68.70
64853;BME280;56050;55.558;-4.644;2024-02-28T12:31:51;100635.97;;;10.99;68.73
64853;BME280;56050;55.558;-4.644;2024-02-28T12:34:17;100637.47;;;11.00;68.75
64853;BME280;56050;55.558;-4.644;2024-02-28T12:36:42;100636.31;;;11.01;68.83
64853;BME280;56050;55.558;-4.644;2024-02-28T12:39:08;100630.16;;;11.00;68.76
64853;BME280;56050;55.558;-4.644;2024-02-28T12:41:39;100625.53;;;11.01;68.90
64853;BME280;56050;55.558;-4.644;2024-02-28T12:44:06;100627.84;;;11.02;69.03